createdAt,value
2023-04-25T00:02:16.242Z,12.95
2023-04-25T00:04:43.628Z,12.95
2023-04-25T00:07:11.604Z,12.95
2023-04-25T00:09:38.416Z,12.97
2023-04-25T00:12:05.614Z,12.98
2023-04-25T00:14:35.201Z,12.99
2023-04-25T00:17:02.413Z,13.04
2023-04-25T00:19:29.455Z,13.09
2023-04-25T00:21:56.570Z,13.15
2023-04-25T00:24:23.287Z,13.19
2023-04-25T00:26:50.029Z,13.22
2023-04-25T00:29:17.278Z,13.23
2023-04-25T00:31:44.046Z,13.23
2023-04-25T00:34:10.787Z,13.23
2023-04-25T00:36:37.487Z,13.23
2023-04-25T00:39:05.653Z,13.21
2023-04-25T00:41:33.000Z,13.18
2023-04-25T00:44:00.487Z,13.15
2023-04-25T00:46:27.336Z,13.11
2023-04-25T00:48:54.124Z,13.09
2023-04-25T00:51:21.562Z,13.07
2023-04-25T00:53:50.489Z,13.08
2023-04-25T00:56:17.529Z,13.14
2023-04-25T00:58:44.345Z,13.17
2023-04-25T01:01:11.561Z,13.18
2023-04-25T01:03:42.245Z,13.18
2023-04-25T01:06:10.281Z,13.16
2023-04-25T01:08:40.959Z,13.16
2023-04-25T01:11:07.848Z,13.12
2023-04-25T01:13:35.082Z,13.10
2023-04-25T01:16:02.196Z,13.06
2023-04-25T01:18:29.068Z,13.02
2023-04-25T01:20:56.714Z,13.00
2023-04-25T01:23:23.793Z,12.97
2023-04-25T01:25:50.932Z,12.93
2023-04-25T01:28:17.718Z,12.89
2023-04-25T01:30:44.456Z,12.85
2023-04-25T01:33:11.264Z,12.83
2023-04-25T01:35:38.042Z,12.82
2023-04-25T01:38:04.801Z,12.82
2023-04-25T01:40:34.579Z,12.81
2023-04-25T01:43:01.364Z,12.80
2023-04-25T01:45:28.328Z,12.79
2023-04-25T01:47:55.101Z,12.77
2023-04-25T01:50:21.971Z,12.75
2023-04-25T01:52:49.192Z,12.92
2023-04-25T01:55:16.705Z,12.99
2023-04-25T01:57:52.897Z,12.84
2023-04-25T02:00:24.388Z,12.72
2023-04-25T02:02:52.006Z,12.63
2023-04-25T02:05:28.743Z,12.57
2023-04-25T02:07:56.142Z,12.52
2023-04-25T02:10:25.622Z,12.44
2023-04-25T02:13:07.221Z,12.38
2023-04-25T02:16:06.468Z,12.32
2023-04-25T02:18:34.287Z,12.25
2023-04-25T02:21:02.169Z,12.24
2023-04-25T02:23:29.378Z,12.42
2023-04-25T02:25:56.471Z,12.49
2023-04-25T02:28:24.816Z,12.38
2023-04-25T02:30:53.378Z,12.26
2023-04-25T02:33:22.021Z,12.15
2023-04-25T02:35:48.978Z,12.06
2023-04-25T02:38:15.849Z,11.98
2023-04-25T02:40:42.610Z,11.90
2023-04-25T02:43:09.410Z,11.84
2023-04-25T02:45:36.442Z,11.82
2023-04-25T02:48:04.345Z,12.03
2023-04-25T02:50:32.505Z,12.10
2023-04-25T02:52:59.621Z,11.96
2023-04-25T02:55:30.868Z,11.86
2023-04-25T02:57:57.903Z,11.79
2023-04-25T03:00:36.579Z,11.74
2023-04-25T03:03:03.686Z,11.68
2023-04-25T03:05:30.698Z,11.68
2023-04-25T03:07:58.470Z,11.91
2023-04-25T03:10:25.334Z,12.01
2023-04-25T03:12:52.102Z,11.91
2023-04-25T03:15:19.735Z,11.85
2023-04-25T03:17:46.520Z,11.81
2023-04-25T03:20:13.479Z,11.80
2023-04-25T03:22:40.568Z,11.79
2023-04-25T03:25:08.293Z,11.88
2023-04-25T03:27:35.369Z,12.10
2023-04-25T03:30:02.818Z,12.07
2023-04-25T03:32:29.953Z,12.01
2023-04-25T03:34:56.906Z,11.99
2023-04-25T03:37:43.081Z,12.03
2023-04-25T03:40:10.129Z,12.19
2023-04-25T03:43:02.763Z,12.40
2023-04-25T03:45:29.580Z,12.58
2023-04-25T03:47:56.838Z,12.78
2023-04-25T03:50:23.661Z,13.01
2023-04-25T03:52:50.900Z,13.24
2023-04-25T03:55:17.754Z,13.49
2023-04-25T03:57:44.822Z,13.68
2023-04-25T04:00:12.331Z,13.76
2023-04-25T04:02:43.943Z,13.71
2023-04-25T04:05:12.291Z,13.73
2023-04-25T04:07:44.884Z,13.95
2023-04-25T04:10:13.031Z,14.25
2023-04-25T04:12:40.690Z,14.52
2023-04-25T04:15:08.118Z,14.75
2023-04-25T04:17:35.806Z,15.02
2023-04-25T04:20:04.706Z,15.27
2023-04-25T04:22:32.425Z,15.49
2023-04-25T04:25:05.766Z,15.75
2023-04-25T04:27:55.665Z,16.03
2023-04-25T04:30:32.136Z,16.35
2023-04-25T04:33:02.828Z,16.65
2023-04-25T04:35:29.935Z,16.96
2023-04-25T04:37:57.291Z,17.23
2023-04-25T04:40:26.650Z,17.42
2023-04-25T04:43:06.932Z,17.23
2023-04-25T04:45:52.104Z,16.98
2023-04-25T04:48:35.429Z,16.75
2023-04-25T04:51:21.936Z,16.84
2023-04-25T04:54:03.539Z,17.23
2023-04-25T04:56:43.186Z,17.58
2023-04-25T04:59:33.838Z,17.86
2023-04-25T05:02:30.064Z,18.17
2023-04-25T05:05:23.181Z,18.24
2023-04-25T05:07:59.476Z,18.03
2023-04-25T05:10:41.235Z,17.63
2023-04-25T05:13:31.509Z,17.30
2023-04-25T05:16:05.155Z,17.04
2023-04-25T05:18:52.059Z,16.99
2023-04-25T05:21:33.789Z,17.13
2023-04-25T05:24:17.664Z,17.24
2023-04-25T05:27:19.859Z,17.30
2023-04-25T05:30:06.847Z,17.39
2023-04-25T05:32:43.876Z,17.62
2023-04-25T05:35:10.788Z,17.88
2023-04-25T05:37:43.848Z,18.17
2023-04-25T05:40:12.641Z,18.33
2023-04-25T05:42:45.537Z,18.36
2023-04-25T05:45:42.532Z,18.38
2023-04-25T05:48:28.384Z,18.50
2023-04-25T05:51:21.263Z,18.68
2023-04-25T05:54:08.232Z,18.93
2023-04-25T05:56:35.777Z,19.05
2023-04-25T05:59:02.524Z,19.15
2023-04-25T06:01:29.263Z,19.34
2023-04-25T06:03:56.469Z,19.54
2023-04-25T06:06:24.092Z,19.69
2023-04-25T06:08:51.439Z,19.78
2023-04-25T06:11:18.226Z,19.90
2023-04-25T06:13:44.939Z,20.06
2023-04-25T06:16:12.543Z,20.15
2023-04-25T06:18:39.635Z,20.28
2023-04-25T06:21:06.351Z,20.37
2023-04-25T06:23:33.423Z,20.53
2023-04-25T06:26:04.419Z,20.68
2023-04-25T06:28:31.609Z,20.79
2023-04-25T06:30:58.323Z,20.91
2023-04-25T06:33:25.467Z,20.99
2023-04-25T06:35:52.284Z,20.99
2023-04-25T06:38:22.816Z,21.06
2023-04-25T06:40:51.403Z,21.02
2023-04-25T06:43:18.487Z,20.99
2023-04-25T06:45:57.221Z,21.03
2023-04-25T06:48:25.448Z,21.11
2023-04-25T06:50:52.292Z,21.19
2023-04-25T06:53:19.869Z,21.24
2023-04-25T06:55:48.869Z,21.25
2023-04-25T06:58:21.084Z,21.28
2023-04-25T07:01:07.594Z,21.12
2023-04-25T07:03:34.921Z,21.03
2023-04-25T07:06:06.241Z,20.99
2023-04-25T07:08:33.136Z,21.00
2023-04-25T07:11:00.039Z,21.02
2023-04-25T07:15:48.596Z,20.72
2023-04-25T07:18:17.096Z,21.26
2023-04-25T07:20:44.425Z,21.37
2023-04-25T07:23:12.069Z,21.49
2023-04-25T07:25:39.426Z,21.63
2023-04-25T07:28:06.445Z,21.70
2023-04-25T07:30:33.235Z,21.76
2023-04-25T07:33:04.011Z,21.74
2023-04-25T07:35:30.828Z,21.72
2023-04-25T07:37:57.602Z,21.72
2023-04-25T07:40:24.924Z,21.73
2023-04-25T07:42:55.779Z,21.72
2023-04-25T07:45:44.918Z,21.65
2023-04-25T07:48:12.234Z,21.66
2023-04-25T07:50:39.132Z,21.67
2023-04-25T07:53:06.403Z,21.68
2023-04-25T07:55:37.617Z,21.76
2023-04-25T07:58:10.803Z,21.89
2023-04-25T08:00:39.090Z,22.01
2023-04-25T08:03:35.298Z,22.04
2023-04-25T08:06:07.719Z,22.14
2023-04-25T08:08:39.540Z,22.23
2023-04-25T08:11:07.009Z,22.13
2023-04-25T08:13:33.746Z,22.04
2023-04-25T08:16:00.881Z,22.12
2023-04-25T08:18:27.998Z,22.25
2023-04-25T08:20:54.949Z,22.39
2023-04-25T08:23:21.680Z,22.41
2023-04-25T08:25:53.607Z,22.44
2023-04-25T08:28:22.902Z,22.44
2023-04-25T08:30:49.656Z,22.49
2023-04-25T08:33:16.719Z,22.60
2023-04-25T08:35:58.557Z,22.69
2023-04-25T08:38:25.557Z,22.85
2023-04-25T08:40:53.538Z,22.95
2023-04-25T08:43:21.536Z,22.97
2023-04-25T08:45:48.546Z,23.02
2023-04-25T08:48:23.648Z,22.99
2023-04-25T08:50:54.307Z,23.01
2023-04-25T08:53:28.913Z,23.08
2023-04-25T08:55:58.827Z,22.99
2023-04-25T08:58:25.646Z,22.74
2023-04-25T09:00:52.558Z,22.44
2023-04-25T09:03:20.728Z,22.13
2023-04-25T09:05:48.194Z,22.01
2023-04-25T09:08:15.968Z,22.01
2023-04-25T09:10:42.954Z,22.13
2023-04-25T09:13:13.935Z,22.21
2023-04-25T09:16:00.080Z,22.27
2023-04-25T09:18:39.722Z,22.33
2023-04-25T09:21:14.321Z,22.49
2023-04-25T09:23:50.887Z,22.61
2023-04-25T09:26:21.868Z,22.66
2023-04-25T09:28:49.345Z,22.65
2023-04-25T09:31:27.131Z,22.61
2023-04-25T09:34:02.250Z,22.62
2023-04-25T09:36:31.410Z,22.68
2023-04-25T09:39:30.896Z,22.78
2023-04-25T09:42:08.580Z,22.75
2023-04-25T09:44:36.970Z,22.76
2023-04-25T09:47:04.018Z,22.87
2023-04-25T09:49:31.296Z,22.90
2023-04-25T09:52:02.793Z,23.00
2023-04-25T09:54:56.111Z,23.11
2023-04-25T09:57:28.904Z,23.14
2023-04-25T09:59:56.948Z,23.17
2023-04-25T10:02:26.776Z,23.12
2023-04-25T10:04:56.973Z,23.10
2023-04-25T10:07:36.401Z,23.04
2023-04-25T10:10:04.848Z,23.08
2023-04-25T10:12:32.442Z,23.23
2023-04-25T10:14:59.433Z,23.35
2023-04-25T10:17:28.905Z,23.50
2023-04-25T10:19:55.766Z,23.60
2023-04-25T10:22:39.918Z,23.62
2023-04-25T10:25:07.151Z,23.63
2023-04-25T10:27:34.281Z,23.63
2023-04-25T10:30:05.616Z,23.70
2023-04-25T10:32:34.088Z,23.81
2023-04-25T10:35:17.784Z,23.73
2023-04-25T10:38:01.586Z,23.53
2023-04-25T10:40:28.440Z,23.55
2023-04-25T10:42:57.144Z,23.53
2023-04-25T10:45:23.917Z,23.58
2023-04-25T10:47:50.752Z,23.64
2023-04-25T10:50:18.177Z,23.67
2023-04-25T10:52:47.974Z,23.50
2023-04-25T10:55:14.759Z,23.26
2023-04-25T10:57:47.339Z,23.32
2023-04-25T11:00:16.499Z,23.46
2023-04-25T11:02:46.891Z,23.68
2023-04-25T11:05:51.077Z,23.85
2023-04-25T11:08:49.101Z,23.84
2023-04-25T11:11:18.410Z,23.96
2023-04-25T11:13:46.053Z,24.07
2023-04-25T11:16:23.611Z,24.11
2023-04-25T11:18:54.285Z,24.22
2023-04-25T11:21:21.103Z,24.34
2023-04-25T11:23:47.921Z,24.39
2023-04-25T11:26:16.189Z,24.48
2023-04-25T11:28:46.351Z,24.74
2023-04-25T11:31:13.325Z,24.95
2023-04-25T11:33:41.883Z,24.92
2023-04-25T11:36:08.935Z,24.68
2023-04-25T11:38:35.796Z,24.38
2023-04-25T11:41:02.768Z,24.07
2023-04-25T11:43:29.652Z,23.81
2023-04-25T11:45:56.810Z,23.67
2023-04-25T11:48:25.975Z,23.71
2023-04-25T11:50:55.211Z,23.91
2023-04-25T11:53:22.138Z,24.03
2023-04-25T11:55:48.886Z,24.12
2023-04-25T11:58:15.664Z,24.03
2023-04-25T12:00:50.097Z,23.90
2023-04-25T12:03:18.865Z,23.73
2023-04-25T12:05:46.378Z,23.58
2023-04-25T12:08:17.048Z,23.61
2023-04-25T12:10:46.430Z,23.92
2023-04-25T12:13:27.001Z,24.45
2023-04-25T12:15:55.621Z,24.99
2023-04-25T12:18:24.497Z,25.10
2023-04-25T12:20:51.409Z,24.97
2023-04-25T12:23:18.314Z,24.61
2023-04-25T12:25:46.141Z,24.43
2023-04-25T12:28:28.947Z,24.55
2023-04-25T12:31:00.141Z,24.87
2023-04-25T12:33:28.553Z,25.08
2023-04-25T12:35:55.743Z,25.29
2023-04-25T12:38:31.171Z,25.16
2023-04-25T12:41:01.004Z,24.86
2023-04-25T12:43:27.801Z,24.70
2023-04-25T12:45:56.401Z,24.60
2023-04-25T12:48:23.347Z,24.73
2023-04-25T12:50:50.826Z,24.78
2023-04-25T12:53:18.654Z,24.83
2023-04-25T12:55:47.829Z,24.91
2023-04-25T12:58:19.127Z,25.09
2023-04-25T13:00:46.302Z,25.34
2023-04-25T13:03:13.813Z,25.61
2023-04-25T13:08:28.286Z,25.93
2023-04-25T13:10:55.050Z,25.70
2023-04-25T13:13:21.933Z,25.42
2023-04-25T13:15:48.792Z,25.07
2023-04-25T13:18:16.235Z,24.79
2023-04-25T13:20:42.961Z,24.54
2023-04-25T13:23:09.650Z,24.46
2023-04-25T13:25:36.355Z,24.51
2023-04-25T13:28:03.250Z,24.48
2023-04-25T13:30:29.994Z,24.49
2023-04-25T13:32:58.376Z,24.55
2023-04-25T13:35:26.893Z,24.70
2023-04-25T13:37:53.728Z,24.64
2023-04-25T13:40:20.637Z,24.50
2023-04-25T13:42:47.736Z,24.33
2023-04-25T13:45:14.551Z,24.09
2023-04-25T13:47:41.426Z,23.82
2023-04-25T13:50:09.027Z,23.82
2023-04-25T13:52:35.782Z,24.03
2023-04-25T13:55:04.530Z,24.18
2023-04-25T13:57:32.725Z,24.10
2023-04-25T13:59:59.500Z,23.89
2023-04-25T14:02:27.086Z,23.60
2023-04-25T14:04:53.931Z,23.37
2023-04-25T14:07:22.024Z,23.12
2023-04-25T14:09:48.754Z,22.91
2023-04-25T14:12:16.830Z,22.77
2023-04-25T14:14:43.520Z,22.76
2023-04-25T14:17:10.362Z,22.89
2023-04-25T14:19:38.681Z,23.22
2023-04-25T14:22:05.975Z,23.72
2023-04-25T14:24:32.679Z,24.23
2023-04-25T14:26:59.519Z,24.70
2023-04-25T14:29:26.213Z,25.02
2023-04-25T14:31:52.976Z,25.26
2023-04-25T14:34:20.061Z,25.50
2023-04-25T14:36:46.786Z,25.76
2023-04-25T14:39:15.083Z,25.94
2023-04-25T14:41:41.804Z,26.02
2023-04-25T14:44:09.394Z,26.21
2023-04-25T14:46:36.347Z,26.37
2023-04-25T14:49:04.105Z,26.30
2023-04-25T14:51:32.075Z,25.80
2023-04-25T14:53:59.132Z,25.16
2023-04-25T14:56:25.952Z,24.65
2023-04-25T14:58:52.780Z,24.11
2023-04-25T15:01:21.778Z,23.94
2023-04-25T15:03:49.559Z,24.17
2023-04-25T15:06:16.509Z,24.60
2023-04-25T15:08:43.205Z,25.02
2023-04-25T15:11:12.148Z,25.38
2023-04-25T15:13:38.849Z,25.55
2023-04-25T15:16:06.261Z,25.69
2023-04-25T15:18:33.042Z,25.88
2023-04-25T15:20:59.749Z,26.07
2023-04-25T15:23:27.838Z,26.32
2023-04-25T15:25:55.947Z,26.49
2023-04-25T15:28:23.101Z,26.65
2023-04-25T15:30:49.979Z,26.84
2023-04-25T15:33:16.984Z,26.78
2023-04-25T15:35:44.082Z,26.63
2023-04-25T15:38:11.748Z,26.64
2023-04-25T15:40:38.516Z,26.60
2023-04-25T15:43:05.287Z,26.59
2023-04-25T15:45:33.138Z,26.67
2023-04-25T15:47:59.951Z,26.75
2023-04-25T15:50:27.057Z,26.74
2023-04-25T15:52:54.884Z,26.61
2023-04-25T15:55:22.045Z,26.57
2023-04-25T15:57:49.641Z,26.61
2023-04-25T16:00:17.902Z,26.56
2023-04-25T16:02:45.926Z,26.42
2023-04-25T16:05:14.748Z,26.13
2023-04-25T16:07:43.693Z,25.83
2023-04-25T16:10:11.480Z,25.67
2023-04-25T16:12:39.685Z,25.57
2023-04-25T16:15:06.879Z,25.31
2023-04-25T16:17:33.910Z,24.97
2023-04-25T16:20:04.514Z,24.65
2023-04-25T16:22:31.936Z,24.40
2023-04-25T16:24:58.649Z,24.22
2023-04-25T16:27:25.795Z,24.09
2023-04-25T16:29:52.527Z,23.97
2023-04-25T16:32:19.515Z,23.83
2023-04-25T16:34:46.285Z,23.64
2023-04-25T16:37:13.072Z,23.48
2023-04-25T16:39:39.823Z,23.37
2023-04-25T16:42:06.957Z,23.24
2023-04-25T16:44:33.781Z,23.09
2023-04-25T16:47:00.666Z,22.96
2023-04-25T16:49:27.525Z,22.80
2023-04-25T16:51:54.260Z,22.59
2023-04-25T16:54:21.411Z,22.33
2023-04-25T16:56:48.163Z,21.98
2023-04-25T16:59:14.919Z,21.61
2023-04-25T17:01:41.638Z,21.28
2023-04-25T17:04:08.445Z,20.99
2023-04-25T17:06:35.410Z,20.71
2023-04-25T17:09:02.166Z,20.45
2023-04-25T17:11:28.914Z,20.23
2023-04-25T17:13:55.718Z,20.03
2023-04-25T17:16:23.402Z,19.84
2023-04-25T17:18:53.354Z,19.69
2023-04-25T17:21:20.426Z,19.52
2023-04-25T17:23:47.319Z,19.39
2023-04-25T17:26:14.922Z,19.26
2023-04-25T17:28:42.337Z,19.14
2023-04-25T17:31:09.858Z,19.04
2023-04-25T17:33:36.868Z,18.94
2023-04-25T17:36:04.142Z,18.84
2023-04-25T17:38:31.748Z,18.73
2023-04-25T17:40:58.871Z,18.64
2023-04-25T17:43:26.760Z,18.57
2023-04-25T17:45:54.073Z,18.50
2023-04-25T17:48:22.966Z,18.43
2023-04-25T17:50:49.794Z,18.35
2023-04-25T17:53:16.616Z,18.29
2023-04-25T17:55:43.885Z,18.24
2023-04-25T17:58:11.509Z,18.18
2023-04-25T18:00:39.412Z,18.13
2023-04-25T18:03:07.705Z,18.08
2023-04-25T18:05:34.774Z,18.02
2023-04-25T18:08:01.575Z,17.96
2023-04-25T18:10:28.459Z,17.89
2023-04-25T18:12:55.348Z,17.85
2023-04-25T18:15:22.903Z,17.82
2023-04-25T18:17:49.767Z,17.80
2023-04-25T18:20:17.107Z,17.78
2023-04-25T18:22:44.938Z,17.75
2023-04-25T18:25:11.983Z,17.75
2023-04-25T18:27:39.038Z,17.76
2023-04-25T18:30:07.552Z,17.73
2023-04-25T18:32:34.488Z,17.70
2023-04-25T18:35:01.620Z,17.66
2023-04-25T18:37:28.614Z,17.66
2023-04-25T18:39:55.509Z,17.63
2023-04-25T18:42:22.734Z,17.60
2023-04-25T18:44:49.762Z,17.55
2023-04-25T18:47:16.918Z,17.51
2023-04-25T18:49:44.070Z,17.47
2023-04-25T18:52:12.731Z,17.42
2023-04-25T18:54:39.657Z,17.40
2023-04-25T18:57:06.484Z,17.38
2023-04-25T18:59:33.732Z,17.36
2023-04-25T19:02:02.094Z,17.38
2023-04-25T19:04:29.319Z,17.37
2023-04-25T19:06:56.422Z,17.35
2023-04-25T19:09:23.381Z,17.30
2023-04-25T19:11:50.099Z,17.24
2023-04-25T19:14:16.848Z,17.20
2023-04-25T19:16:43.652Z,17.17
2023-04-25T19:19:10.963Z,17.13
2023-04-25T19:21:38.018Z,17.11
2023-04-25T19:24:05.505Z,17.07
2023-04-25T19:26:32.392Z,17.03
2023-04-25T19:29:10.092Z,17.00
2023-04-25T19:33:27.460Z,16.59
2023-04-25T19:35:54.327Z,16.85
2023-04-25T19:38:21.420Z,16.85
2023-04-25T19:40:49.102Z,16.82
2023-04-25T19:43:15.830Z,16.79
2023-04-25T19:45:42.535Z,16.77
2023-04-25T19:48:10.423Z,16.78
2023-04-25T19:50:37.271Z,16.74
2023-04-25T19:53:04.460Z,16.69
2023-04-25T19:55:31.198Z,16.64
2023-04-25T19:57:58.008Z,16.59
2023-04-25T20:00:24.750Z,16.56
2023-04-25T20:02:51.484Z,16.51
2023-04-25T20:05:18.775Z,16.47
2023-04-25T20:07:45.492Z,16.44
2023-04-25T20:10:16.606Z,16.40
2023-04-25T20:12:44.312Z,16.37
2023-04-25T20:15:11.864Z,16.34
2023-04-25T20:17:40.302Z,16.30
2023-04-25T20:20:08.526Z,16.27
2023-04-25T20:22:36.283Z,16.23
2023-04-25T20:25:07.114Z,16.20
2023-04-25T20:27:33.836Z,16.18
2023-04-25T20:30:04.923Z,16.14
2023-04-25T20:32:34.885Z,16.12
2023-04-25T20:35:05.908Z,16.10
2023-04-25T20:37:33.314Z,16.07
2023-04-25T20:40:00.684Z,16.06
2023-04-25T20:42:27.529Z,16.05
2023-04-25T20:44:54.742Z,16.01
2023-04-25T20:47:22.558Z,15.99
2023-04-25T20:49:50.074Z,15.95
2023-04-25T20:52:17.442Z,15.92
2023-04-25T20:54:45.246Z,15.93
2023-04-25T20:57:12.398Z,15.90
2023-04-25T20:59:39.135Z,15.87
2023-04-25T21:02:05.908Z,15.86
2023-04-25T21:04:32.683Z,15.84
2023-04-25T21:07:00.942Z,15.84
2023-04-25T21:09:27.775Z,15.82
2023-04-25T21:11:54.619Z,15.80
2023-04-25T21:14:23.002Z,15.80
2023-04-25T21:16:49.756Z,15.77
2023-04-25T21:19:16.771Z,15.75
2023-04-25T21:21:44.539Z,15.75
2023-04-25T21:24:13.013Z,15.71
2023-04-25T21:26:39.814Z,15.69
2023-04-25T21:29:06.539Z,15.66
2023-04-25T21:31:33.356Z,15.65
2023-04-25T21:34:00.851Z,15.62
2023-04-25T21:36:27.968Z,15.60
2023-04-25T21:38:55.007Z,15.56
2023-04-25T21:41:22.589Z,15.53
2023-04-25T21:43:49.327Z,15.48
2023-04-25T21:46:23.376Z,15.45
2023-04-25T21:48:51.634Z,15.41
2023-04-25T21:51:18.732Z,15.36
2023-04-25T21:53:45.521Z,15.31
2023-04-25T21:56:12.828Z,15.26
2023-04-25T21:58:39.648Z,15.22
2023-04-25T22:01:06.514Z,15.17
2023-04-25T22:03:33.664Z,15.14
2023-04-25T22:06:01.303Z,15.10
2023-04-25T22:08:28.161Z,15.07
2023-04-25T22:10:57.872Z,15.04
2023-04-25T22:13:24.784Z,15.00
2023-04-25T22:15:52.769Z,14.97
2023-04-25T22:18:19.897Z,14.92
2023-04-25T22:20:46.741Z,14.88
2023-04-25T22:23:14.312Z,14.84
2023-04-25T22:25:42.173Z,14.80
2023-04-25T22:28:08.941Z,14.77
2023-04-25T22:30:35.641Z,14.74
2023-04-25T22:33:02.361Z,14.71
2023-04-25T22:35:29.178Z,14.67
2023-04-25T22:37:55.864Z,14.64
2023-04-25T22:40:22.688Z,14.61
2023-04-25T22:42:49.565Z,14.57
2023-04-25T22:45:17.301Z,14.54
2023-04-25T22:47:44.283Z,14.50
2023-04-25T22:50:16.832Z,14.47
2023-04-25T22:52:44.003Z,14.44
2023-04-25T22:55:12.553Z,14.42
2023-04-25T22:57:39.660Z,14.39
2023-04-25T23:00:27.724Z,14.36
2023-04-25T23:02:54.912Z,14.53
2023-04-25T23:05:24.514Z,14.54
2023-04-25T23:07:51.216Z,14.46
2023-04-25T23:10:19.392Z,14.39
2023-04-25T23:12:46.164Z,14.34
2023-04-25T23:15:13.724Z,14.28
2023-04-25T23:17:40.854Z,14.24
2023-04-25T23:20:10.772Z,14.19
2023-04-25T23:22:38.240Z,14.15
2023-04-25T23:25:05.897Z,14.13
2023-04-25T23:27:33.054Z,14.30
2023-04-25T23:29:59.723Z,14.29
2023-04-25T23:32:26.893Z,14.19
2023-04-25T23:34:53.666Z,14.11
2023-04-25T23:37:20.449Z,14.06
2023-04-25T23:39:49.393Z,14.01
2023-04-25T23:42:17.196Z,13.96
2023-04-25T23:44:43.999Z,13.90
2023-04-25T23:47:13.103Z,13.93
2023-04-25T23:49:40.981Z,14.12
2023-04-25T23:52:07.926Z,14.05
2023-04-25T23:54:34.744Z,13.93
2023-04-25T23:57:04.435Z,13.86
2023-04-25T23:59:31.652Z,13.81
